createdAt,value
2019-03-23T10:38:19.090Z,11.17
2019-03-23T10:39:19.054Z,11.16
2019-03-23T10:40:19.042Z,11.09
2019-03-23T10:41:19.036Z,11.16
2019-03-23T10:42:19.013Z,11.17
2019-03-23T10:43:19.023Z,11.31
2019-03-23T10:44:19.009Z,11.31
2019-03-23T10:45:18.978Z,11.35
2019-03-23T10:46:18.975Z,11.24
2019-03-23T10:47:18.991Z,11.24
2019-03-23T10:48:18.933Z,11.21
2019-03-23T10:49:18.949Z,11.19
2019-03-23T10:50:18.923Z,11.17
2019-03-23T10:51:18.921Z,11.14
2019-03-23T10:52:18.890Z,11.35
2019-03-23T10:53:23.085Z,11.24
2019-03-23T10:54:19.056Z,11.21
2019-03-23T10:55:19.070Z,11.21
2019-03-23T10:56:18.844Z,11.20
2019-03-23T10:57:18.841Z,11.16
2019-03-23T10:58:18.821Z,11.21
2019-03-23T10:59:18.853Z,11.21
2019-03-23T11:00:18.816Z,11.31
2019-03-23T11:01:18.796Z,11.41
2019-03-23T11:02:18.780Z,11.52
2019-03-23T11:03:18.785Z,11.54
2019-03-23T11:04:18.795Z,11.65
2019-03-23T11:05:18.747Z,11.78
2019-03-23T11:06:18.733Z,11.80
2019-03-23T11:07:18.739Z,11.86
2019-03-23T11:08:18.738Z,11.96
2019-03-23T11:09:18.735Z,12.01
2019-03-23T11:10:18.695Z,12.11
2019-03-23T11:11:18.680Z,12.13
2019-03-23T11:12:18.668Z,12.26
2019-03-23T11:13:18.655Z,12.23
2019-03-23T11:14:18.680Z,12.23
2019-03-23T11:15:18.633Z,12.21
2019-03-23T11:16:18.620Z,12.26
2019-03-23T11:17:18.609Z,12.26
2019-03-23T11:18:18.613Z,12.26
2019-03-23T11:19:18.595Z,12.29
2019-03-23T11:20:18.697Z,12.41
2019-03-23T11:21:18.568Z,12.60
2019-03-23T11:22:18.556Z,12.63
2019-03-23T11:23:18.545Z,12.62
2019-03-23T11:24:18.534Z,12.62
2019-03-23T11:25:18.534Z,12.63
2019-03-23T11:26:18.552Z,12.63
2019-03-23T11:27:18.498Z,12.63
2019-03-23T11:28:18.488Z,12.67
2019-03-23T11:29:18.505Z,12.70
2019-03-23T11:30:18.470Z,12.74
2019-03-23T11:31:18.486Z,12.66
2019-03-23T11:32:18.450Z,12.67
2019-03-23T11:33:18.430Z,12.63
2019-03-23T11:34:18.428Z,12.45
2019-03-23T11:35:18.534Z,12.54
2019-03-23T11:36:18.414Z,12.54
2019-03-23T11:37:18.541Z,12.63
2019-03-23T11:38:18.375Z,12.57
2019-03-23T11:39:18.371Z,12.56
2019-03-23T11:40:18.395Z,12.54
2019-03-23T11:41:18.355Z,12.62
2019-03-23T11:42:18.356Z,12.56
2019-03-23T11:43:18.324Z,12.64
2019-03-23T11:44:18.310Z,12.64
2019-03-23T11:45:18.334Z,12.62
2019-03-23T11:46:18.295Z,12.56
2019-03-23T11:47:18.283Z,12.70
2019-03-23T11:48:18.263Z,12.63
2019-03-23T11:49:18.254Z,12.75
2019-03-23T11:50:18.243Z,12.82
2019-03-23T11:51:18.257Z,12.81
2019-03-23T11:52:18.220Z,12.82
2019-03-23T11:54:19.310Z,12.89
2019-03-23T11:55:18.187Z,12.92
2019-03-23T11:56:18.201Z,12.89
2019-03-23T11:57:18.201Z,12.84
2019-03-23T11:58:18.153Z,12.87
2019-03-23T11:59:18.153Z,12.96
2019-03-23T12:00:18.135Z,12.99
2019-03-23T12:01:18.145Z,13.06
2019-03-23T12:02:18.104Z,13.04
2019-03-23T12:03:18.103Z,13.04
2019-03-23T12:04:18.100Z,13.15
2019-03-23T12:05:18.078Z,13.18
2019-03-23T12:06:18.519Z,13.18
2019-03-23T12:07:18.072Z,13.22
2019-03-23T12:08:18.429Z,13.27
2019-03-23T12:09:18.029Z,13.27
2019-03-23T12:10:18.031Z,13.36
2019-03-23T12:11:18.008Z,13.36
2019-03-23T12:12:18.023Z,13.37
2019-03-23T12:13:17.985Z,13.41
2019-03-23T12:14:17.985Z,13.51
2019-03-23T12:15:17.972Z,13.49
2019-03-23T12:16:17.979Z,13.46
2019-03-23T12:17:17.947Z,13.44
2019-03-23T12:18:17.926Z,13.47
2019-03-23T12:19:17.928Z,13.47
2019-03-23T12:20:17.909Z,13.49
2019-03-23T12:21:18.062Z,13.58
2019-03-23T12:22:17.889Z,13.49
2019-03-23T12:23:17.929Z,13.32
2019-03-23T12:24:17.860Z,13.37
2019-03-23T12:25:17.860Z,13.32
2019-03-23T12:26:17.871Z,13.24
2019-03-23T12:27:17.835Z,13.22
2019-03-23T12:28:17.850Z,13.24
2019-03-23T12:29:17.810Z,13.27
2019-03-23T12:30:17.796Z,13.33
2019-03-23T12:31:17.840Z,13.30
2019-03-23T12:32:17.812Z,13.32
2019-03-23T12:33:17.803Z,13.32
2019-03-23T12:34:17.931Z,13.30
2019-03-23T12:35:17.737Z,13.30
2019-03-23T12:36:17.728Z,13.29
